createdAt,value
2023-03-29T00:00:03.884Z,1.20
2023-03-29T00:00:14.856Z,1.20
2023-03-29T00:00:25.604Z,1.30
2023-03-29T00:00:36.649Z,1.20
2023-03-29T00:00:47.611Z,1.20
2023-03-29T00:00:58.485Z,1.30
2023-03-29T00:01:09.013Z,1.20
2023-03-29T00:01:35.490Z,1.10
2023-03-29T00:01:35.725Z,1.10
2023-03-29T00:01:42.106Z,1.20
2023-03-29T00:01:53.043Z,1.30
2023-03-29T00:02:03.961Z,1.30
2023-03-29T00:02:14.567Z,1.10
2023-03-29T00:02:25.607Z,1.20
2023-03-29T00:02:36.392Z,1.30
2023-03-29T00:02:47.505Z,1.30
2023-03-29T00:02:58.106Z,1.40
2023-03-29T00:03:09.226Z,1.30
2023-03-29T00:03:19.925Z,1.30
2023-03-29T00:03:30.536Z,1.20
2023-03-29T00:03:41.376Z,1.20
2023-03-29T00:03:52.023Z,1.30
2023-03-29T00:04:02.925Z,1.30
2023-03-29T00:04:13.272Z,1.30
2023-03-29T00:04:23.861Z,1.10
2023-03-29T00:04:34.879Z,1.20
2023-03-29T00:04:45.725Z,1.30
2023-03-29T00:04:56.211Z,1.30
2023-03-29T00:05:07.174Z,1.30
2023-03-29T00:05:17.936Z,1.30
2023-03-29T00:05:28.986Z,1.30
2023-03-29T00:05:39.949Z,1.30
2023-03-29T00:05:50.711Z,1.30
2023-03-29T00:06:01.756Z,1.20
2023-03-29T00:06:12.720Z,1.10
2023-03-29T00:06:23.483Z,1.10
2023-03-29T00:06:34.530Z,1.20
2023-03-29T00:06:45.492Z,1.20
2023-03-29T00:06:56.269Z,1.30
2023-03-29T00:07:07.346Z,1.30
2023-03-29T00:07:18.293Z,1.40
2023-03-29T00:07:29.056Z,1.40
2023-03-29T00:07:40.106Z,1.40
2023-03-29T00:07:51.070Z,1.40
2023-03-29T00:08:01.924Z,1.40
2023-03-29T00:08:12.423Z,1.40
2023-03-29T00:08:23.382Z,1.50
2023-03-29T00:08:34.158Z,1.50
2023-03-29T00:08:45.192Z,1.30
2023-03-29T00:08:56.157Z,1.20
2023-03-29T00:09:06.923Z,1.30
2023-03-29T00:09:17.961Z,1.50
2023-03-29T00:09:28.932Z,1.50
2023-03-29T00:09:39.695Z,1.30
2023-03-29T00:09:50.744Z,1.30
2023-03-29T00:10:01.715Z,1.50
2023-03-29T00:10:12.529Z,1.50
2023-03-29T00:10:23.560Z,1.30
2023-03-29T00:10:34.532Z,1.20
2023-03-29T00:10:45.307Z,1.20
2023-03-29T00:10:56.339Z,1.30
2023-03-29T00:11:07.310Z,1.30
2023-03-29T00:11:18.064Z,1.40
2023-03-29T00:11:29.111Z,1.40
2023-03-29T00:11:40.078Z,1.40
2023-03-29T00:11:50.842Z,1.40
2023-03-29T00:12:01.895Z,1.30
2023-03-29T00:12:12.851Z,1.30
2023-03-29T00:12:23.613Z,1.40
2023-03-29T00:12:34.657Z,1.40
2023-03-29T00:12:45.621Z,1.30
2023-03-29T00:12:56.385Z,1.30
2023-03-29T00:13:07.469Z,1.30
2023-03-29T00:13:18.418Z,1.30
2023-03-29T00:13:29.182Z,1.40
2023-03-29T00:13:40.240Z,1.50
2023-03-29T00:13:51.202Z,1.50
2023-03-29T00:14:01.966Z,1.30
2023-03-29T00:14:13.020Z,1.20
2023-03-29T00:14:23.979Z,1.20
2023-03-29T00:14:34.744Z,1.20
2023-03-29T00:14:45.790Z,1.40
2023-03-29T00:14:56.768Z,1.40
2023-03-29T00:15:07.524Z,1.50
2023-03-29T00:15:18.589Z,1.50
2023-03-29T00:15:29.539Z,1.30
2023-03-29T00:15:40.335Z,1.30
2023-03-29T00:15:51.342Z,1.30
2023-03-29T00:16:02.306Z,1.30
2023-03-29T00:16:13.071Z,1.40
2023-03-29T00:16:24.127Z,1.50
2023-03-29T00:16:35.086Z,1.50
2023-03-29T00:16:45.943Z,1.40
2023-03-29T00:16:56.421Z,1.50
2023-03-29T00:17:07.386Z,1.40
2023-03-29T00:17:18.118Z,1.60
2023-03-29T00:17:29.180Z,1.50
2023-03-29T00:17:40.172Z,1.50
2023-03-29T00:17:50.934Z,1.50
2023-03-29T00:18:01.981Z,1.40
2023-03-29T00:18:13.038Z,1.40
2023-03-29T00:18:23.806Z,1.50
2023-03-29T00:18:34.847Z,1.60
2023-03-29T00:18:45.836Z,1.60
2023-03-29T00:18:56.603Z,1.40
2023-03-29T00:19:07.650Z,1.40
2023-03-29T00:19:18.616Z,1.50
2023-03-29T00:19:29.384Z,1.40
2023-03-29T00:19:40.423Z,1.40
2023-03-29T00:19:51.393Z,1.30
2023-03-29T00:20:02.162Z,1.40
2023-03-29T00:20:13.202Z,1.30
2023-03-29T00:20:24.160Z,1.30
2023-03-29T00:20:34.934Z,1.30
2023-03-29T00:20:45.965Z,1.50
2023-03-29T00:20:56.937Z,1.70
2023-03-29T00:21:07.716Z,1.70
2023-03-29T00:21:18.747Z,1.60
2023-03-29T00:21:29.714Z,1.50
2023-03-29T00:21:40.472Z,1.60
2023-03-29T00:21:51.524Z,1.60
2023-03-29T00:22:02.483Z,1.50
2023-03-29T00:22:13.251Z,1.30
2023-03-29T00:22:24.299Z,1.20
2023-03-29T00:22:35.259Z,1.30
2023-03-29T00:22:46.034Z,1.40
2023-03-29T00:22:57.070Z,1.40
2023-03-29T00:23:08.034Z,1.40
2023-03-29T00:23:18.806Z,1.40
2023-03-29T00:23:29.856Z,1.50
2023-03-29T00:23:40.819Z,1.60
2023-03-29T00:23:51.598Z,1.50
2023-03-29T00:24:02.658Z,1.50
2023-03-29T00:24:13.610Z,1.40
2023-03-29T00:24:24.374Z,1.30
2023-03-29T00:24:35.421Z,1.50
2023-03-29T00:24:46.386Z,1.70
2023-03-29T00:24:57.160Z,1.60
2023-03-29T00:25:08.242Z,1.40
2023-03-29T00:25:19.184Z,1.40
2023-03-29T00:25:29.934Z,1.50
2023-03-29T00:25:40.984Z,1.50
2023-03-29T00:25:51.949Z,1.40
2023-03-29T00:26:02.710Z,1.70
2023-03-29T00:26:13.759Z,1.70
2023-03-29T00:26:24.719Z,1.60
2023-03-29T00:26:35.495Z,1.30
2023-03-29T00:26:46.560Z,1.50
2023-03-29T00:26:57.496Z,1.60
2023-03-29T00:27:08.263Z,1.40
2023-03-29T00:27:19.302Z,1.50
2023-03-29T00:27:30.271Z,1.40
2023-03-29T00:27:41.044Z,1.50
2023-03-29T00:27:52.088Z,1.50
2023-03-29T00:28:03.045Z,1.50
2023-03-29T00:28:13.816Z,1.50
2023-03-29T00:28:24.872Z,1.40
2023-03-29T00:28:35.836Z,1.50
2023-03-29T00:28:46.600Z,1.50
2023-03-29T00:28:57.665Z,1.50
2023-03-29T00:29:08.631Z,1.60
2023-03-29T00:29:19.393Z,1.60
2023-03-29T00:29:30.438Z,1.60
2023-03-29T00:29:41.408Z,1.60
2023-03-29T00:29:52.178Z,1.50
2023-03-29T00:30:03.216Z,1.60
2023-03-29T00:30:14.182Z,1.50
2023-03-29T00:30:24.982Z,1.50
2023-03-29T00:30:35.997Z,1.40
2023-03-29T00:30:46.953Z,1.60
2023-03-29T00:30:57.734Z,1.70
2023-03-29T00:31:08.795Z,1.50
2023-03-29T00:31:19.792Z,1.50
2023-03-29T00:31:30.560Z,1.30
2023-03-29T00:31:41.137Z,1.50
2023-03-29T00:31:52.135Z,1.50
2023-03-29T00:32:02.845Z,1.80
2023-03-29T00:32:13.896Z,1.70
2023-03-29T00:32:24.878Z,1.70
2023-03-29T00:32:35.645Z,1.60
2023-03-29T00:32:46.702Z,1.50
2023-03-29T00:32:57.679Z,1.50
2023-03-29T00:33:08.483Z,1.60
2023-03-29T00:33:18.951Z,1.60
2023-03-29T00:33:29.933Z,1.70
2023-03-29T00:33:40.695Z,1.40
2023-03-29T00:33:51.278Z,1.40
2023-03-29T00:34:02.229Z,1.30
2023-03-29T00:34:13.008Z,1.30
2023-03-29T00:34:24.036Z,1.30
2023-03-29T00:34:35.008Z,1.50
2023-03-29T00:34:45.881Z,1.50
2023-03-29T00:34:56.455Z,1.70
2023-03-29T00:35:07.419Z,1.70
2023-03-29T00:35:18.203Z,1.50
2023-03-29T00:35:29.297Z,1.40
2023-03-29T00:35:40.242Z,1.50
2023-03-29T00:35:51.043Z,1.70
2023-03-29T00:36:02.145Z,1.50
2023-03-29T00:36:12.654Z,1.60
2023-03-29T00:36:23.412Z,1.40
2023-03-29T00:36:34.456Z,1.40
2023-03-29T00:36:45.432Z,1.30
2023-03-29T00:36:56.187Z,1.40
2023-03-29T00:37:07.233Z,1.40
2023-03-29T00:37:18.206Z,1.50
2023-03-29T00:37:28.966Z,1.50
2023-03-29T00:37:40.015Z,1.40
2023-03-29T00:37:51.137Z,1.50
2023-03-29T00:38:01.854Z,1.40
2023-03-29T00:38:12.906Z,1.60
2023-03-29T00:38:23.863Z,1.40
2023-03-29T00:38:34.638Z,1.50
2023-03-29T00:38:45.681Z,1.50
2023-03-29T00:38:56.653Z,1.50
2023-03-29T00:39:07.417Z,1.50
2023-03-29T00:39:18.455Z,1.30
2023-03-29T00:39:29.422Z,1.40
2023-03-29T00:39:40.197Z,1.30
2023-03-29T00:39:51.235Z,1.30
2023-03-29T00:40:02.200Z,1.40
2023-03-29T00:40:12.961Z,1.50
2023-03-29T00:40:24.015Z,1.40
2023-03-29T00:40:34.976Z,1.50
2023-03-29T00:40:45.735Z,1.40
2023-03-29T00:40:56.795Z,1.50
2023-03-29T00:41:07.760Z,1.60
2023-03-29T00:41:18.515Z,1.60
2023-03-29T00:41:29.565Z,1.60
2023-03-29T00:41:40.534Z,1.70
2023-03-29T00:41:51.297Z,1.70
2023-03-29T00:42:02.380Z,1.40
2023-03-29T00:42:13.368Z,1.40
2023-03-29T00:42:24.134Z,1.50
2023-03-29T00:42:35.179Z,1.40
2023-03-29T00:42:46.148Z,1.40
2023-03-29T00:42:56.906Z,1.30
2023-03-29T00:43:07.960Z,1.40
2023-03-29T00:43:18.926Z,1.40
2023-03-29T00:43:29.704Z,1.40
2023-03-29T00:43:40.749Z,1.40
2023-03-29T00:43:51.722Z,1.30
2023-03-29T00:44:02.515Z,1.20
2023-03-29T00:44:13.530Z,1.40
2023-03-29T00:44:24.499Z,1.40
2023-03-29T00:44:35.263Z,1.60
2023-03-29T00:44:46.310Z,1.40
2023-03-29T00:44:57.276Z,1.40
2023-03-29T00:45:08.057Z,1.30
2023-03-29T00:45:19.153Z,1.50
2023-03-29T00:45:30.118Z,1.50
2023-03-29T00:45:40.856Z,1.40
2023-03-29T00:45:51.905Z,1.40
2023-03-29T00:46:02.948Z,1.50
2023-03-29T00:46:13.736Z,1.50
2023-03-29T00:46:24.795Z,1.60
2023-03-29T00:46:35.820Z,1.40
2023-03-29T00:46:46.581Z,1.30
2023-03-29T00:46:57.600Z,1.50
2023-03-29T00:47:08.564Z,1.30
2023-03-29T00:47:19.330Z,1.20
2023-03-29T00:47:30.407Z,1.20
2023-03-29T00:47:41.413Z,1.30
2023-03-29T00:47:52.203Z,1.20
2023-03-29T00:48:03.353Z,1.30
2023-03-29T00:48:13.840Z,1.40
2023-03-29T00:48:24.592Z,1.40
2023-03-29T00:48:35.651Z,1.30
2023-03-29T00:48:46.619Z,1.30
2023-03-29T00:48:57.385Z,1.20
2023-03-29T00:49:08.446Z,1.20
2023-03-29T00:49:19.408Z,1.20
2023-03-29T00:49:30.176Z,1.20
2023-03-29T00:49:41.217Z,1.30
2023-03-29T00:49:52.183Z,1.40
2023-03-29T00:50:02.972Z,1.60
2023-03-29T00:50:13.993Z,1.60
2023-03-29T00:50:24.955Z,1.50
2023-03-29T00:50:35.724Z,1.30
2023-03-29T00:50:46.768Z,1.40
2023-03-29T00:50:57.734Z,1.40
2023-03-29T00:51:09.971Z,1.20
2023-03-29T00:51:19.451Z,1.20
2023-03-29T00:51:30.411Z,1.20
2023-03-29T00:51:41.176Z,1.30
2023-03-29T00:51:52.224Z,1.40
2023-03-29T00:52:03.187Z,1.40
2023-03-29T00:52:13.969Z,1.40
2023-03-29T00:52:24.999Z,1.10
2023-03-29T00:52:35.969Z,1.00
2023-03-29T00:52:46.729Z,1.10
2023-03-29T00:52:57.784Z,1.10
2023-03-29T00:53:08.750Z,1.20
2023-03-29T00:53:19.520Z,1.10
2023-03-29T00:53:30.563Z,1.00
2023-03-29T00:53:41.538Z,0.90
2023-03-29T00:53:52.298Z,0.80
2023-03-29T00:54:03.355Z,0.90
2023-03-29T00:54:14.333Z,0.90
2023-03-29T00:54:25.102Z,1.10
2023-03-29T00:54:36.146Z,1.00
2023-03-29T00:54:47.109Z,1.10
2023-03-29T00:54:57.874Z,1.10
2023-03-29T00:55:08.924Z,1.00
2023-03-29T00:55:19.888Z,0.90
2023-03-29T00:55:30.661Z,1.10
2023-03-29T00:55:41.693Z,1.20
2023-03-29T00:55:52.672Z,1.20
2023-03-29T00:56:03.419Z,1.00
2023-03-29T00:56:14.463Z,0.90
2023-03-29T00:56:25.426Z,1.00
2023-03-29T00:56:36.196Z,1.10
2023-03-29T00:56:47.243Z,1.00
2023-03-29T00:56:58.225Z,1.00
2023-03-29T00:57:09.024Z,1.00
2023-03-29T00:57:19.547Z,1.00
2023-03-29T00:57:30.490Z,1.00
2023-03-29T00:57:41.261Z,0.90
2023-03-29T00:57:52.331Z,0.90
2023-03-29T00:58:03.261Z,0.90
2023-03-29T00:58:14.024Z,1.00
2023-03-29T00:58:25.082Z,0.90
2023-03-29T00:58:36.039Z,0.80
2023-03-29T00:58:46.812Z,0.80
2023-03-29T00:58:57.857Z,0.90
2023-03-29T00:59:08.823Z,0.90
2023-03-29T00:59:19.609Z,0.90
2023-03-29T00:59:30.647Z,0.80
2023-03-29T00:59:41.615Z,0.70
2023-03-29T00:59:52.385Z,0.80
2023-03-29T01:00:03.437Z,0.80
2023-03-29T01:00:14.399Z,0.90
2023-03-29T01:00:25.175Z,0.90
2023-03-29T01:00:36.246Z,0.90
2023-03-29T01:00:47.169Z,0.80
2023-03-29T01:00:57.971Z,0.80
2023-03-29T01:01:08.974Z,0.80
2023-03-29T01:01:19.958Z,0.70
2023-03-29T01:01:30.760Z,0.80
2023-03-29T01:01:41.792Z,0.90
2023-03-29T01:01:52.785Z,0.90
2023-03-29T01:02:03.555Z,1.00
2023-03-29T01:02:14.667Z,1.00
2023-03-29T01:02:25.696Z,0.90
2023-03-29T01:02:36.447Z,0.80
2023-03-29T01:02:47.015Z,0.80
2023-03-29T01:02:58.012Z,1.00
2023-03-29T01:03:08.834Z,1.00
2023-03-29T01:03:19.470Z,1.10
2023-03-29T01:03:29.995Z,1.10
2023-03-29T01:03:40.889Z,1.10
2023-03-29T01:03:51.517Z,0.90
2023-03-29T01:04:02.626Z,0.80
2023-03-29T01:04:13.384Z,0.80
2023-03-29T01:04:24.704Z,0.70
2023-03-29T01:04:35.133Z,0.90
2023-03-29T01:04:45.897Z,0.90
2023-03-29T01:04:56.945Z,1.00
2023-03-29T01:05:07.912Z,0.90
2023-03-29T01:05:18.685Z,0.90
2023-03-29T01:05:29.722Z,1.00
2023-03-29T01:05:40.690Z,1.10
2023-03-29T01:05:51.453Z,1.10
2023-03-29T01:06:02.513Z,1.00
2023-03-29T01:06:13.463Z,0.90
2023-03-29T01:06:24.244Z,0.90
2023-03-29T01:06:35.331Z,0.80
2023-03-29T01:06:46.285Z,0.80
2023-03-29T01:06:57.089Z,0.90
2023-03-29T01:07:07.631Z,1.00
2023-03-29T01:07:18.697Z,1.00
2023-03-29T01:07:29.518Z,1.00
2023-03-29T01:07:40.579Z,0.90
2023-03-29T01:07:51.538Z,0.80
2023-03-29T01:08:02.309Z,1.00
2023-03-29T01:08:13.346Z,1.00
2023-03-29T01:08:24.312Z,1.00
2023-03-29T01:08:35.080Z,0.90
2023-03-29T01:08:46.118Z,1.00
2023-03-29T01:08:57.115Z,1.00
2023-03-29T01:09:07.865Z,1.00
2023-03-29T01:09:18.906Z,1.00
2023-03-29T01:09:29.889Z,1.00
2023-03-29T01:09:40.649Z,1.10
2023-03-29T01:09:51.693Z,1.10
2023-03-29T01:10:02.656Z,1.00
2023-03-29T01:10:13.438Z,1.10
2023-03-29T01:10:24.470Z,1.00
2023-03-29T01:10:35.440Z,1.10
2023-03-29T01:10:46.199Z,1.10
2023-03-29T01:10:57.255Z,1.00
2023-03-29T01:11:08.208Z,1.00
2023-03-29T01:11:18.976Z,1.00
2023-03-29T01:11:30.012Z,0.90
2023-03-29T01:11:40.977Z,1.00
2023-03-29T01:11:51.743Z,1.00
2023-03-29T01:12:02.784Z,1.10
2023-03-29T01:12:13.758Z,1.10
2023-03-29T01:12:24.514Z,1.10
2023-03-29T01:12:35.560Z,1.10
2023-03-29T01:12:46.530Z,1.20
2023-03-29T01:12:57.311Z,1.00
2023-03-29T01:13:08.347Z,0.90
2023-03-29T01:13:19.316Z,0.90
2023-03-29T01:13:30.075Z,0.90
2023-03-29T01:13:41.126Z,1.00
2023-03-29T01:13:52.090Z,1.10
2023-03-29T01:14:02.872Z,1.10
2023-03-29T01:14:13.919Z,1.00
2023-03-29T01:14:24.883Z,1.00
2023-03-29T01:14:35.656Z,1.10
2023-03-29T01:14:46.709Z,1.10
2023-03-29T01:14:57.685Z,1.00
2023-03-29T01:15:08.434Z,1.00
2023-03-29T01:15:19.486Z,1.10
2023-03-29T01:15:30.446Z,1.20
2023-03-29T01:15:41.232Z,1.10
2023-03-29T01:15:52.253Z,1.10
2023-03-29T01:16:03.271Z,1.10
2023-03-29T01:16:14.112Z,1.10
2023-03-29T01:16:24.665Z,1.00
2023-03-29T01:16:35.652Z,0.90
2023-03-29T01:16:46.437Z,0.90
2023-03-29T01:16:57.495Z,0.90
2023-03-29T01:17:08.439Z,1.10
2023-03-29T01:17:19.218Z,1.10
2023-03-29T01:17:30.257Z,1.10
2023-03-29T01:17:41.249Z,1.20
2023-03-29T01:17:52.045Z,1.30
2023-03-29T01:18:02.570Z,1.30
2023-03-29T01:18:13.495Z,1.10
2023-03-29T01:18:24.254Z,1.10
2023-03-29T01:18:35.310Z,0.90
2023-03-29T01:18:46.277Z,1.00
2023-03-29T01:18:57.049Z,1.10
2023-03-29T01:19:08.115Z,1.10
2023-03-29T01:19:19.077Z,1.00
2023-03-29T01:19:29.844Z,1.00
2023-03-29T01:19:40.904Z,1.10
2023-03-29T01:19:51.875Z,1.10
2023-03-29T01:20:02.629Z,1.20
2023-03-29T01:20:13.707Z,1.20
2023-03-29T01:20:24.640Z,1.30
2023-03-29T01:20:35.412Z,1.20
2023-03-29T01:20:46.459Z,1.20
2023-03-29T01:20:57.468Z,1.20
2023-03-29T01:21:08.233Z,1.20
2023-03-29T01:21:19.305Z,1.20
2023-03-29T01:21:30.264Z,1.10
2023-03-29T01:21:41.023Z,1.10
2023-03-29T01:21:52.081Z,1.20
2023-03-29T01:22:03.035Z,1.20
2023-03-29T01:22:13.798Z,1.10
2023-03-29T01:22:24.845Z,1.10
2023-03-29T01:22:35.812Z,1.00
2023-03-29T01:22:46.575Z,1.00
2023-03-29T01:22:57.617Z,0.90
2023-03-29T01:23:08.586Z,1.20
2023-03-29T01:23:19.350Z,1.30
2023-03-29T01:23:30.400Z,1.30
2023-03-29T01:23:41.370Z,1.10
2023-03-29T01:23:52.147Z,1.10
2023-03-29T01:24:03.175Z,1.10
2023-03-29T01:24:14.157Z,1.30
2023-03-29T01:24:24.947Z,1.30
2023-03-29T01:24:35.995Z,1.30
2023-03-29T01:24:46.968Z,1.30
2023-03-29T01:24:57.731Z,1.30
2023-03-29T01:25:08.771Z,1.20
2023-03-29T01:25:19.743Z,1.20
2023-03-29T01:25:30.506Z,1.10
2023-03-29T01:25:41.545Z,1.20
2023-03-29T01:25:52.512Z,1.20
2023-03-29T01:26:03.306Z,1.30
2023-03-29T01:26:14.321Z,1.40
2023-03-29T01:26:25.283Z,1.50
2023-03-29T01:26:36.057Z,1.40
2023-03-29T01:26:47.098Z,1.30
2023-03-29T01:26:58.060Z,1.20
2023-03-29T01:27:08.827Z,1.10
2023-03-29T01:27:19.870Z,1.20
2023-03-29T01:27:30.840Z,1.10
2023-03-29T01:27:41.598Z,1.00
2023-03-29T01:27:52.644Z,1.10
2023-03-29T01:28:03.612Z,1.30
2023-03-29T01:28:14.382Z,1.50
2023-03-29T01:28:25.420Z,1.20
2023-03-29T01:28:36.406Z,1.20
2023-03-29T01:28:47.193Z,1.10
2023-03-29T01:28:58.230Z,1.20
2023-03-29T01:29:09.201Z,1.40
2023-03-29T01:29:19.984Z,1.40
2023-03-29T01:29:31.030Z,1.40
2023-03-29T01:29:41.998Z,1.10
2023-03-29T01:29:52.788Z,1.00
2023-03-29T01:30:03.828Z,1.10
2023-03-29T01:30:14.794Z,1.30
2023-03-29T01:30:25.566Z,1.20
2023-03-29T01:30:36.617Z,1.20
2023-03-29T01:30:47.602Z,1.20
2023-03-29T01:30:58.368Z,1.30
2023-03-29T01:31:09.402Z,1.40
2023-03-29T01:31:20.396Z,1.30
2023-03-29T01:31:31.172Z,1.20
2023-03-29T01:31:42.240Z,1.30
2023-03-29T01:31:53.235Z,1.30
2023-03-29T01:32:04.033Z,1.20
2023-03-29T01:32:14.544Z,1.10
2023-03-29T01:32:25.540Z,1.20
2023-03-29T01:32:36.304Z,1.00
2023-03-29T01:32:47.340Z,1.00
2023-03-29T01:32:58.304Z,1.00
2023-03-29T01:33:09.048Z,1.10
2023-03-29T01:33:20.097Z,1.20
2023-03-29T01:33:31.059Z,1.10
2023-03-29T01:33:41.830Z,1.10
2023-03-29T01:33:52.868Z,1.20
2023-03-29T01:34:03.834Z,1.10
2023-03-29T01:34:14.606Z,1.30
2023-03-29T01:34:25.675Z,1.30
2023-03-29T01:34:36.622Z,1.30
2023-03-29T01:34:47.385Z,1.30
2023-03-29T01:34:58.435Z,1.10
2023-03-29T01:35:09.406Z,1.20
2023-03-29T01:35:20.169Z,1.20
2023-03-29T01:35:31.228Z,1.20
2023-03-29T01:35:42.193Z,1.10
2023-03-29T01:35:52.969Z,1.00
2023-03-29T01:36:04.070Z,1.20
2023-03-29T01:36:15.039Z,1.30
2023-03-29T01:36:25.778Z,1.20
2023-03-29T01:36:36.823Z,1.20
2023-03-29T01:36:47.788Z,1.10
2023-03-29T01:36:58.558Z,1.10
2023-03-29T01:37:09.599Z,0.90
2023-03-29T01:37:20.568Z,1.00
2023-03-29T01:37:31.332Z,1.10
2023-03-29T01:37:42.378Z,1.10
2023-03-29T01:37:53.341Z,1.20
2023-03-29T01:38:04.102Z,1.20
2023-03-29T01:38:15.147Z,1.20
2023-03-29T01:38:26.116Z,1.00
2023-03-29T01:38:36.881Z,1.10
2023-03-29T01:38:47.925Z,1.10
2023-03-29T01:38:58.894Z,1.30
2023-03-29T01:39:09.667Z,1.20
2023-03-29T01:39:20.690Z,1.10
2023-03-29T01:39:31.965Z,1.10
2023-03-29T01:39:42.753Z,1.20
2023-03-29T01:39:53.773Z,1.30
2023-03-29T01:40:04.769Z,1.30
2023-03-29T01:40:15.523Z,1.40
2023-03-29T01:40:26.601Z,1.30
2023-03-29T01:40:37.536Z,1.20
2023-03-29T01:40:48.298Z,1.20
2023-03-29T01:40:59.441Z,1.20
2023-03-29T01:41:09.954Z,1.10
2023-03-29T01:41:20.711Z,1.10
2023-03-29T01:41:31.761Z,1.10
2023-03-29T01:41:42.737Z,1.20
2023-03-29T01:41:53.487Z,1.30
2023-03-29T01:42:04.536Z,1.20
2023-03-29T01:42:15.519Z,1.30
2023-03-29T01:42:26.259Z,1.30
2023-03-29T01:42:37.307Z,1.30
2023-03-29T01:42:48.275Z,1.40
2023-03-29T01:42:59.037Z,1.40
2023-03-29T01:43:10.103Z,1.40
2023-03-29T01:43:21.055Z,1.20
2023-03-29T01:43:31.830Z,1.10
2023-03-29T01:43:42.863Z,1.10
2023-03-29T01:43:53.836Z,1.10
2023-03-29T01:44:04.597Z,1.20
2023-03-29T01:44:15.642Z,1.20
2023-03-29T01:44:26.607Z,1.30
2023-03-29T01:44:37.388Z,1.20
2023-03-29T01:44:48.424Z,1.20
2023-03-29T01:44:59.397Z,1.10
2023-03-29T01:45:10.182Z,1.10
2023-03-29T01:45:21.216Z,1.10
2023-03-29T01:45:32.208Z,1.20
2023-03-29T01:45:42.983Z,1.10
2023-03-29T01:45:54.035Z,1.10
2023-03-29T01:46:05.029Z,1.00
2023-03-29T01:46:15.817Z,1.10
2023-03-29T01:46:26.870Z,1.20
2023-03-29T01:46:37.888Z,1.10
2023-03-29T01:46:48.622Z,1.10
2023-03-29T01:46:59.674Z,1.10
2023-03-29T01:47:10.635Z,1.30
2023-03-29T01:47:21.407Z,1.30
2023-03-29T01:47:32.481Z,1.30
2023-03-29T01:47:43.485Z,1.30
2023-03-29T01:47:54.213Z,1.10
2023-03-29T01:48:05.296Z,1.20
2023-03-29T01:48:16.206Z,1.10
2023-03-29T01:48:26.967Z,1.10
2023-03-29T01:48:38.012Z,1.10
2023-03-29T01:48:48.979Z,1.10
2023-03-29T01:48:59.743Z,1.10
2023-03-29T01:49:10.788Z,1.20
2023-03-29T01:49:21.771Z,1.20
2023-03-29T01:49:32.519Z,1.20
2023-03-29T01:49:43.572Z,1.20
2023-03-29T01:49:54.547Z,1.20
2023-03-29T01:50:05.308Z,1.20
2023-03-29T01:50:16.389Z,1.20
2023-03-29T01:50:27.330Z,1.30
2023-03-29T01:50:38.107Z,1.20
2023-03-29T01:50:49.149Z,1.20
2023-03-29T01:51:00.359Z,1.10
2023-03-29T01:51:11.263Z,1.20
2023-03-29T01:51:22.312Z,1.20
2023-03-29T01:51:33.275Z,1.10
2023-03-29T01:51:44.042Z,1.10
2023-03-29T01:51:55.094Z,1.20
2023-03-29T01:52:06.051Z,1.20
2023-03-29T01:52:16.881Z,1.20
2023-03-29T01:52:27.894Z,1.20
2023-03-29T01:52:38.866Z,1.40
2023-03-29T01:52:49.638Z,1.30
2023-03-29T01:53:00.669Z,1.20
2023-03-29T01:53:11.634Z,1.10
2023-03-29T01:53:22.432Z,1.20
2023-03-29T01:53:33.444Z,1.20
2023-03-29T01:53:44.407Z,1.10
2023-03-29T01:53:55.190Z,1.10
2023-03-29T01:54:06.234Z,1.10
2023-03-29T01:54:17.210Z,1.00
2023-03-29T01:54:28.008Z,1.10
2023-03-29T01:54:39.024Z,1.10
2023-03-29T01:54:49.998Z,1.20
2023-03-29T01:55:00.762Z,1.30
2023-03-29T01:55:11.815Z,1.40
2023-03-29T01:55:22.889Z,1.30
2023-03-29T01:55:33.664Z,1.20
2023-03-29T01:55:44.703Z,1.20
2023-03-29T01:55:55.664Z,1.20
2023-03-29T01:56:06.440Z,1.30
2023-03-29T01:56:17.476Z,1.20
2023-03-29T01:56:28.448Z,1.10
2023-03-29T01:56:39.243Z,1.20
2023-03-29T01:56:50.283Z,1.20
2023-03-29T01:57:01.282Z,1.30
2023-03-29T01:57:12.053Z,1.20
2023-03-29T01:57:23.161Z,1.30
2023-03-29T01:57:33.612Z,1.30
2023-03-29T01:57:44.374Z,1.20
2023-03-29T01:57:55.425Z,1.10
2023-03-29T01:58:06.390Z,1.20
2023-03-29T01:58:17.160Z,1.30
2023-03-29T01:58:28.207Z,1.30
2023-03-29T01:58:39.167Z,1.40
2023-03-29T01:58:49.925Z,1.30
2023-03-29T01:59:00.971Z,1.20
2023-03-29T01:59:11.942Z,1.10
2023-03-29T01:59:22.766Z,1.40
2023-03-29T01:59:33.769Z,1.30
2023-03-29T01:59:44.741Z,1.20
2023-03-29T01:59:55.511Z,1.20
2023-03-29T02:00:06.556Z,1.40
2023-03-29T02:00:17.526Z,1.40
2023-03-29T02:00:28.299Z,1.40
2023-03-29T02:00:39.342Z,1.20
2023-03-29T02:00:50.308Z,1.10
2023-03-29T02:01:01.380Z,1.20
2023-03-29T02:01:12.018Z,1.20
2023-03-29T02:01:23.010Z,1.10
2023-03-29T02:01:33.851Z,1.00
2023-03-29T02:01:44.908Z,1.00
2023-03-29T02:01:55.884Z,1.30
2023-03-29T02:02:06.640Z,1.40
2023-03-29T02:02:17.701Z,1.40
2023-03-29T02:02:28.484Z,1.20
2023-03-29T02:02:39.348Z,1.20
2023-03-29T02:02:49.947Z,1.10
2023-03-29T02:03:00.991Z,1.20
2023-03-29T02:03:11.813Z,1.20
2023-03-29T02:03:22.532Z,1.20
2023-03-29T02:03:33.117Z,1.40
2023-03-29T02:03:43.951Z,1.30
2023-03-29T02:03:54.977Z,1.30
2023-03-29T02:04:05.961Z,1.30
2023-03-29T02:04:16.725Z,1.30
2023-03-29T02:04:27.766Z,1.30
2023-03-29T02:04:38.729Z,1.00
2023-03-29T02:04:49.492Z,1.10
2023-03-29T02:05:00.552Z,1.10
2023-03-29T02:05:11.513Z,1.20
2023-03-29T02:05:22.278Z,1.30
2023-03-29T02:05:33.323Z,1.30
2023-03-29T02:05:44.289Z,1.20
2023-03-29T02:05:55.052Z,1.10
2023-03-29T02:06:06.099Z,1.30
2023-03-29T02:06:17.065Z,1.30
2023-03-29T02:06:27.828Z,1.30
2023-03-29T02:06:38.872Z,1.20
2023-03-29T02:06:49.839Z,1.20
2023-03-29T02:07:00.606Z,1.20
2023-03-29T02:07:11.652Z,1.20
2023-03-29T02:07:22.624Z,1.20
2023-03-29T02:07:33.377Z,1.20
2023-03-29T02:07:44.435Z,1.20
2023-03-29T02:07:55.387Z,1.20
2023-03-29T02:08:06.153Z,1.20
2023-03-29T02:08:17.212Z,1.20
2023-03-29T02:08:28.190Z,1.30
2023-03-29T02:08:38.931Z,1.20
2023-03-29T02:08:49.978Z,1.30
2023-03-29T02:09:00.943Z,1.20
2023-03-29T02:09:11.711Z,1.20
2023-03-29T02:09:22.750Z,1.30
2023-03-29T02:09:33.723Z,1.30
2023-03-29T02:09:44.482Z,1.40
2023-03-29T02:09:55.557Z,1.30
2023-03-29T02:10:06.508Z,1.30
2023-03-29T02:10:17.268Z,1.10
2023-03-29T02:10:28.311Z,1.10
2023-03-29T02:10:39.292Z,1.10
2023-03-29T02:10:50.065Z,1.20
2023-03-29T02:11:01.247Z,1.20
2023-03-29T02:11:11.841Z,1.10
2023-03-29T02:11:22.607Z,1.10
2023-03-29T02:11:33.651Z,1.10
2023-03-29T02:11:44.626Z,1.20
2023-03-29T02:11:55.495Z,1.30
2023-03-29T02:12:06.540Z,1.20
2023-03-29T02:12:17.494Z,1.30
2023-03-29T02:12:28.254Z,1.20
2023-03-29T02:12:39.299Z,1.40
2023-03-29T02:12:50.266Z,1.20
2023-03-29T02:13:01.035Z,1.40
2023-03-29T02:13:12.079Z,1.40
2023-03-29T02:13:23.041Z,1.50
2023-03-29T02:13:33.804Z,1.40
2023-03-29T02:13:44.850Z,1.30
2023-03-29T02:13:55.814Z,1.20
2023-03-29T02:14:06.578Z,1.20
2023-03-29T02:14:17.147Z,1.30
2023-03-29T02:14:28.098Z,1.30
2023-03-29T02:14:38.903Z,1.40
2023-03-29T02:14:49.911Z,1.50
2023-03-29T02:15:00.893Z,1.50
2023-03-29T02:15:11.760Z,1.30
2023-03-29T02:15:22.255Z,1.10
2023-03-29T02:15:33.284Z,1.10
2023-03-29T02:15:44.050Z,1.20
2023-03-29T02:15:55.102Z,1.30
2023-03-29T02:16:06.102Z,1.10
2023-03-29T02:16:17.005Z,1.10
2023-03-29T02:16:27.634Z,1.00
2023-03-29T02:16:38.592Z,1.10
2023-03-29T02:16:49.356Z,1.20
2023-03-29T02:17:00.409Z,1.20
2023-03-29T02:17:11.371Z,1.30
2023-03-29T02:17:22.140Z,1.20
2023-03-29T02:17:33.192Z,1.10
2023-03-29T02:17:44.268Z,1.10
2023-03-29T02:17:55.038Z,1.20
2023-03-29T02:18:06.062Z,1.30
2023-03-29T02:18:17.008Z,1.20
2023-03-29T02:18:27.790Z,1.20
2023-03-29T02:18:38.823Z,1.10
2023-03-29T02:18:49.786Z,1.10
2023-03-29T02:19:00.547Z,1.10
2023-03-29T02:19:11.591Z,1.30
2023-03-29T02:19:22.556Z,1.30
2023-03-29T02:19:33.335Z,1.30
2023-03-29T02:19:44.365Z,1.20
2023-03-29T02:19:55.333Z,1.20
2023-03-29T02:20:06.096Z,1.10
2023-03-29T02:20:17.153Z,1.10
2023-03-29T02:20:28.119Z,1.10
2023-03-29T02:20:39.156Z,1.00
2023-03-29T02:20:49.802Z,1.10
2023-03-29T02:21:01.080Z,1.20
2023-03-29T02:21:11.921Z,1.20
2023-03-29T02:21:22.969Z,1.10
2023-03-29T02:21:33.936Z,1.20
2023-03-29T02:21:44.705Z,1.20
2023-03-29T02:21:55.752Z,1.10
2023-03-29T02:22:06.708Z,1.00
2023-03-29T02:22:17.472Z,1.10
2023-03-29T02:22:28.542Z,1.20
2023-03-29T02:22:39.486Z,1.10
2023-03-29T02:22:50.247Z,1.10
2023-03-29T02:23:01.288Z,1.20
2023-03-29T02:23:12.259Z,1.10
2023-03-29T02:23:23.032Z,1.10
2023-03-29T02:23:34.084Z,1.00
2023-03-29T02:23:45.045Z,1.20
2023-03-29T02:23:55.805Z,1.10
2023-03-29T02:24:06.854Z,1.10
2023-03-29T02:24:17.820Z,1.00
2023-03-29T02:24:28.599Z,1.00
2023-03-29T02:24:39.634Z,1.10
2023-03-29T02:24:50.601Z,1.10
2023-03-29T02:25:01.370Z,1.10
2023-03-29T02:25:12.409Z,1.20